• Join FlightAware (Why Join?)
  • Login
  • US Flag 
01:47PM EST


 

Airport Tracker/Info


-or-


 

Live Flight TrackerFlight Track Log ✈ N9246F ✈ 03-Jun-2014 ✈ KDAB - KORL

Flight Track Log - Related Links

Times and Time Zones

All times are in EDT time to prevent confusion due to time zone crossing. See the N9246F flight status page for this flight to view local times or setup timezone preferences in your user account.

Time Position Orientation Groundspeed Altitude Reporting Facility
EDT Latitude Longitude Course Direction KTS MPH feet Rate Location/Type
03:10PM 29.1822 -81.0542 63° Northeast 72 83 500  Level Jacksonville Center
03:10PM 29.1844 -81.0492 63° Northeast 72 83 600 360 Climbing Jacksonville Center
03:11PM 29.1925 -81.0300 64° Northeast 67 77 1,000 360 Climbing Jacksonville Center
03:12PM 29.1900 -81.0086 98° East 88 101 1,400 420 Climbing Jacksonville Center
03:13PM 29.1669 -81.0019 166° South 88 101 1,900 480 Climbing Jacksonville Center
03:14PM 29.1419 -81.0003 177° South 89 102 2,400 420 Climbing Jacksonville Center
03:15PM 29.1169 -80.9983 176° South 85 98 2,800 360 Climbing Jacksonville Center
03:16PM 29.0964 -81.0200 223° Southwest 104 120 3,200 300 Climbing Jacksonville Center
03:19PM 29.0333 -81.0667 213° Southwest 104 120 4,100 180 Climbing Orlando TRACON
03:20PM 29.0167 -81.1000 240° Southwest 113 130 4,000 -60 Descending Orlando TRACON
03:21PM 28.9833 -81.1167 204° Southwest 110 127 4,000  Level Orlando TRACON
03:22PM 28.9500 -81.1333 204° Southwest 114 131 4,000 -120 Level Orlando TRACON
03:23PM 28.9167 -81.1500 204° Southwest 121 139 3,800 -300 Descending Orlando TRACON
03:24PM 28.9167 -81.1667 270° West 110 127 3,500 -360 Descending Orlando TRACON
03:25PM 28.9000 -81.2000 240° Southwest 115 132 3,100 -300 Descending Orlando TRACON
03:26PM 28.8833 -81.2333 240° Southwest 116 133 3,000 -60 Descending Orlando TRACON
03:27PM 28.8667 -81.2667 240° Southwest 117 135 3,000  Level Orlando TRACON
03:28PM 28.8500 -81.3167 249° West 121 139 3,000  Level Orlando TRACON
03:29PM 28.8333 -81.3333 221° Southwest 116 133 3,000  Level Orlando TRACON
03:30PM 28.8167 -81.3667 240° Southwest 116 133 3,000  Level Orlando TRACON
03:31PM 28.8000 -81.4000 240° Southwest 119 137 3,000 -60 Level Orlando TRACON
03:32PM 28.7833 -81.4167 221° Southwest 115 132 2,900 -300 Descending Orlando TRACON
03:33PM 28.7500 -81.4333 204° Southwest 106 122 2,500 -480 Descending Orlando TRACON
03:34PM 28.7333 -81.4500 221° Southwest 108 124 2,000 -300 Descending Orlando TRACON
03:35PM 28.7000 -81.4667 204° Southwest 106 122 2,000  Level Orlando TRACON
03:36PM 28.6667 -81.4667 180° South 105 121 2,000 -240 Level Orlando TRACON
03:37PM 28.6333 -81.4667 180° South 104 120 1,600 -180 Descending Orlando TRACON
03:38PM 28.6000 -81.4833 204° Southwest 107 123 1,700  Climbing Orlando TRACON
03:39PM 28.5833 -81.4667 139° Southeast 100 115 1,700  Level Orlando TRACON
03:40PM 28.5500 -81.4667 180° South 100 115 1,800 -60 Climbing Orlando TRACON
03:41PM 28.5333 -81.4500 139° Southeast 103 119 1,600 -120 Descending Orlando TRACON
03:42PM 28.5167 -81.4333 139° Southeast 89 102 1,600 -120 Level Orlando TRACON
03:43PM 28.5167 -81.4000 90° East 80 92 1,400 -300 Descending Orlando TRACON
03:44PM 28.5333 -81.3833 41° Northeast 70 81 1,000 -360 Descending Orlando TRACON
03:45PM 28.5333 -81.3667 90° East 73 84 700 -180 Descending Orlando TRACON
03:47PM 28.5500 -81.3167 90° East 60 69 500  Descending Orlando TRACON
03:48PM 28.5500 -81.3000 90° East 73 84 800 420 Climbing Orlando TRACON
03:49PM 28.5667 -81.2833 41° Northeast 81 93 1,200 300 Climbing Orlando TRACON
03:50PM 28.5833 -81.2667 41° Northeast 88 101 1,500 240 Climbing Orlando TRACON